^^
B2 Weather Station Historical Data
 
Daily Summary for April 18, 2019 Units:  English    Metric   Both
Daily Weekly Monthly Yearly Custom
  Current: High: Low: Average:
Temperature: 50.2 °F 64.3 °F 50.0 °F 58.4 °F
Dew Point: 48.5 °F 60.9 °F 48.3 °F 55.9 °F
Humidity: 94% 94% 84% 92%
Wind Speed: 10.4mph 22.0mph 2.3mph 10.5mph
Wind Gust: 6.0mph 13.6mph - -
WindWNW - - WSW
Pressure: 29.62 in 29.62 in 29.53 in -
Precipitation: 0.41 in      
Historical Graphs
 
 
Tabular Data for April 18, 2019
Time Temperature Dew Point Pressure Wind Wind Speed Wind Gust Humidity Rainfall Rate (Hourly) solar
00:04 64.3 °F 59.4 °F 29.60 in SSW 11.5 mph 6.7 mph 84% 0.00 in 0.00 W/m2
00:09 64.1 °F 59.5 °F 29.59 in SW 13.0 mph 8.8 mph 85% 0.00 in 0.00 W/m2
00:14 64.0 °F 59.4 °F 29.59 in SSW 11.5 mph 7.2 mph 85% 0.00 in 0.00 W/m2
00:19 63.8 °F 59.5 °F 29.59 in WSW 15.0 mph 7.1 mph 86% 0.00 in 0.00 W/m2
00:24 63.8 °F 59.5 °F 29.59 in SSW 16.1 mph 8.8 mph 86% 0.00 in 0.00 W/m2
00:29 63.7 °F 59.4 °F 29.59 in SSW 12.7 mph 4.4 mph 86% 0.00 in 0.00 W/m2
00:34 63.5 °F 59.2 °F 29.59 in South 9.2 mph 6.9 mph 86% 0.00 in 0.00 W/m2
00:39 63.5 °F 59.6 °F 29.58 in SSE 16.1 mph 10.1 mph 87% 0.00 in 0.00 W/m2
00:44 63.4 °F 59.1 °F 29.58 in SSW 13.0 mph 6.8 mph 86% 0.00 in 0.00 W/m2
00:49 63.3 °F 59.0 °F 29.58 in SSE 11.5 mph 4.4 mph 86% 0.00 in 0.00 W/m2
00:54 63.1 °F 59.2 °F 29.58 in SSW 22.0 mph 11.0 mph 87% 0.00 in 0.00 W/m2
00:59 63.2 °F 59.3 °F 29.59 in SSW 15.0 mph 11.5 mph 87% 0.00 in 0.00 W/m2
01:04 63.1 °F 59.2 °F 29.59 in SSW 16.1 mph 7.5 mph 87% 0.00 in 0.00 W/m2
01:09 63.0 °F 59.1 °F 29.59 in SSW 17.3 mph 7.7 mph 87% 0.00 in 0.00 W/m2
01:14 62.8 °F 59.2 °F 29.59 in SSW 16.1 mph 8.0 mph 88% 0.00 in 0.00 W/m2
01:19 62.8 °F 59.2 °F 29.58 in SSW 11.5 mph 8.3 mph 88% 0.00 in 0.00 W/m2
01:24 62.7 °F 59.1 °F 29.57 in WSW 18.4 mph 7.7 mph 88% 0.00 in 0.00 W/m2
01:29 62.7 °F 59.1 °F 29.58 in SSW 17.3 mph 4.8 mph 88% 0.00 in 0.00 W/m2
01:34 62.7 °F 59.1 °F 29.58 in South 20.7 mph 12.3 mph 88% 0.00 in 0.00 W/m2
01:39 62.8 °F 59.2 °F 29.58 in SSW 18.0 mph 9.8 mph 88% 0.00 in 0.00 W/m2
01:44 62.8 °F 59.2 °F 29.58 in SSW 16.1 mph 12.8 mph 88% 0.00 in 0.00 W/m2
01:49 62.9 °F 59.3 °F 29.58 in SSW 18.4 mph 11.2 mph 88% 0.00 in 0.00 W/m2
01:54 62.9 °F 59.3 °F 29.58 in SSE 12.7 mph 7.9 mph 88% 0.00 in 0.00 W/m2
01:59 62.9 °F 59.6 °F 29.57 in SSW 17.3 mph 11.0 mph 89% 0.00 in 0.00 W/m2
02:04 62.9 °F 59.6 °F 29.57 in SSW 13.8 mph 7.8 mph 89% 0.00 in 0.00 W/m2
02:09 62.8 °F 59.5 °F 29.57 in SSW 17.3 mph 10.8 mph 89% 0.00 in 0.00 W/m2
02:14 62.9 °F 59.6 °F 29.57 in SSW 16.1 mph 12.6 mph 89% 0.00 in 0.00 W/m2
02:19 63.0 °F 59.7 °F 29.57 in SW 17.3 mph 11.7 mph 89% 0.00 in 0.00 W/m2
02:24 63.1 °F 59.8 °F 29.57 in South 11.5 mph 13.6 mph 89% 0.00 in 0.00 W/m2
02:29 63.2 °F 59.9 °F 29.57 in SSW 15.0 mph 9.6 mph 89% 0.00 in 0.00 W/m2
02:34 63.3 °F 60.0 °F 29.56 in SSE 11.5 mph 5.9 mph 89% 0.00 in 0.00 W/m2
02:39 63.3 °F 60.3 °F 29.56 in SSW 18.4 mph 10.3 mph 90% 0.00 in 0.00 W/m2
02:44 63.4 °F 60.4 °F 29.55 in SSW 12.7 mph 8.4 mph 90% 0.00 in 0.00 W/m2
02:49 63.4 °F 60.4 °F 29.55 in SSW 10.4 mph 6.7 mph 90% 0.00 in 0.00 W/m2
02:54 63.4 °F 60.4 °F 29.55 in South 15.0 mph 11.7 mph 90% 0.00 in 0.00 W/m2
02:59 63.5 °F 60.5 °F 29.55 in South 12.0 mph 7.8 mph 90% 0.00 in 0.00 W/m2
03:04 63.6 °F 60.6 °F 29.55 in SSW 12.7 mph 7.0 mph 90% 0.00 in 0.00 W/m2
03:09 63.7 °F 60.4 °F 29.55 in West 15.0 mph 7.2 mph 89% 0.00 in 0.00 W/m2
03:14 63.8 °F 60.5 °F 29.54 in SSW 11.5 mph 8.0 mph 89% 0.00 in 0.00 W/m2
03:19 64.0 °F 60.7 °F 29.54 in SSW 11.5 mph 7.9 mph 89% 0.00 in 0.00 W/m2
03:24 64.1 °F 60.8 °F 29.54 in SW 16.1 mph 6.1 mph 89% 0.00 in 0.00 W/m2
03:29 64.2 °F 60.9 °F 29.55 in WSW 8.1 mph 4.1 mph 89% 0.00 in 0.00 W/m2
03:34 64.2 °F 60.6 °F 29.56 in West 13.8 mph 7.8 mph 88% 0.00 in 0.00 W/m2
03:39 64.2 °F 60.6 °F 29.57 in SSW 12.7 mph 6.9 mph 88% 0.00 in 0.00 W/m2
03:44 64.1 °F 60.8 °F 29.56 in South 11.5 mph 7.9 mph 89% 0.00 in 0.00 W/m2
03:49 64.0 °F 60.7 °F 29.56 in SW 13.8 mph 6.7 mph 89% 0.00 in 0.00 W/m2
03:54 63.9 °F 60.6 °F 29.56 in SSW 11.5 mph 7.4 mph 89% 0.00 in 0.00 W/m2
03:59 63.8 °F 60.8 °F 29.55 in SW 13.8 mph 8.0 mph 90% 0.00 in 0.00 W/m2
04:04 63.6 °F 60.6 °F 29.56 in South 13.8 mph 5.3 mph 90% 0.00 in 0.00 W/m2
04:09 63.5 °F 60.8 °F 29.56 in South 17.3 mph 8.7 mph 91% 0.00 in 0.00 W/m2
04:14 63.4 °F 60.7 °F 29.55 in South 13.8 mph 5.2 mph 91% 0.01 in 0.00 W/m2
04:19 63.2 °F 60.8 °F 29.55 in SW 11.5 mph 7.3 mph 92% 0.05 in 0.00 W/m2
04:24 63.1 °F 60.7 °F 29.55 in SSW 19.6 mph 10.4 mph 92% 0.08 in 0.00 W/m2
04:29 63.0 °F 60.9 °F 29.55 in South 12.7 mph 5.4 mph 93% 0.09 in 0.00 W/m2
04:34 62.9 °F 60.8 °F 29.55 in SW 8.1 mph 4.4 mph 93% 0.10 in 0.00 W/m2
04:39 62.9 °F 60.8 °F 29.56 in SW 13.8 mph 9.3 mph 93% 0.10 in 0.00 W/m2
04:44 62.9 °F 60.8 °F 29.57 in SW 16.0 mph 10.5 mph 93% 0.11 in 0.00 W/m2
04:49 62.8 °F 60.7 °F 29.57 in SSW 12.7 mph 8.2 mph 93% 0.12 in 0.00 W/m2
04:54 62.4 °F 60.3 °F 29.56 in WSW 18.4 mph 11.2 mph 93% 0.14 in 0.00 W/m2
04:59 61.8 °F 59.8 °F 29.56 in WSW 12.7 mph 6.4 mph 93% 0.16 in 0.00 W/m2
05:04 61.6 °F 59.6 °F 29.55 in WNW 13.8 mph 7.6 mph 93% 0.17 in 0.00 W/m2
05:09 61.4 °F 59.4 °F 29.54 in West 14.0 mph 6.6 mph 93% 0.17 in 0.00 W/m2
05:14 61.3 °F 59.3 °F 29.54 in WSW 13.8 mph 7.3 mph 93% 0.16 in 0.00 W/m2
05:19 61.1 °F 59.1 °F 29.54 in WSW 13.8 mph 6.6 mph 93% 0.12 in 0.00 W/m2
05:24 61.1 °F 59.1 °F 29.54 in West 10.4 mph 6.5 mph 93% 0.09 in 0.00 W/m2
05:29 61.1 °F 59.1 °F 29.54 in SW 12.0 mph 7.9 mph 93% 0.08 in 0.00 W/m2
05:34 61.0 °F 59.0 °F 29.54 in SW 11.5 mph 8.0 mph 93% 0.07 in 0.00 W/m2
05:39 61.0 °F 59.0 °F 29.54 in SSW 13.8 mph 8.6 mph 93% 0.07 in 0.00 W/m2
05:44 60.9 °F 58.9 °F 29.54 in SW 11.5 mph 5.8 mph 93% 0.06 in 0.00 W/m2
05:49 60.8 °F 58.8 °F 29.54 in SW 10.4 mph 6.9 mph 93% 0.05 in 0.00 W/m2
05:54 60.7 °F 58.7 °F 29.54 in West 11.5 mph 6.7 mph 93% 0.03 in 0.00 W/m2
05:59 60.7 °F 58.7 °F 29.54 in WSW 9.2 mph 7.7 mph 93% 0.01 in 0.00 W/m2
06:04 60.6 °F 58.6 °F 29.54 in WSW 13.8 mph 7.3 mph 93% 0.00 in 0.00 W/m2
06:09 60.5 °F 58.5 °F 29.54 in WSW 4.6 mph 3.2 mph 93% 0.00 in 0.00 W/m2
06:14 60.4 °F 58.4 °F 29.54 in SSW 3.5 mph 3.9 mph 93% 0.00 in 0.00 W/m2
06:19 60.3 °F 58.3 °F 29.55 in South 5.8 mph 2.9 mph 93% 0.00 in 0.00 W/m2
06:24 60.2 °F 58.2 °F 29.55 in SSW 5.8 mph 3.0 mph 93% 0.00 in 0.00 W/m2
06:29 60.1 °F 58.4 °F 29.55 in South 3.5 mph 1.0 mph 94% 0.00 in 0.00 W/m2
06:34 60.0 °F 58.3 °F 29.55 in South 6.0 mph 3.2 mph 94% 0.00 in 5.00 W/m2
06:39 60.0 °F 58.3 °F 29.55 in SSW 8.1 mph 2.6 mph 94% 0.00 in 7.00 W/m2
06:44 59.9 °F 58.2 °F 29.55 in WSW 5.8 mph 4.1 mph 94% 0.00 in 7.00 W/m2
06:49 59.8 °F 58.1 °F 29.55 in WSW 6.9 mph 5.0 mph 94% 0.00 in 9.00 W/m2
06:54 59.8 °F 58.1 °F 29.55 in WSW 8.1 mph 4.1 mph 94% 0.00 in 9.00 W/m2
06:59 59.5 °F 57.8 °F 29.55 in WSW 6.9 mph 3.6 mph 94% 0.00 in 9.00 W/m2
07:04 59.3 °F 57.6 °F 29.55 in SW 3.5 mph 4.2 mph 94% 0.00 in 9.00 W/m2
07:09 59.1 °F 57.1 °F 29.55 in WSW 8.1 mph 4.3 mph 93% 0.00 in 7.00 W/m2
07:14 58.9 °F 56.9 °F 29.55 in NW 3.5 mph 2.5 mph 93% 0.00 in 7.00 W/m2
07:19 58.1 °F 56.1 °F 29.55 in WNW 3.5 mph 1.7 mph 93% 0.00 in 11.00 W/m2
07:24 57.6 °F 55.6 °F 29.55 in WNW 4.6 mph 2.0 mph 93% 0.01 in 14.00 W/m2
07:29 57.3 °F 55.3 °F 29.55 in WNW 3.5 mph 1.0 mph 93% 0.01 in 12.00 W/m2
07:34 56.9 °F 54.9 °F 29.54 in NW 2.3 mph 1.2 mph 93% 0.01 in 21.00 W/m2
07:39 56.7 °F 54.7 °F 29.55 in NW 3.5 mph 0.1 mph 93% 0.01 in 12.00 W/m2
07:44 56.6 °F 54.9 °F 29.55 in NW 2.3 mph 1.5 mph 94% 0.01 in 19.00 W/m2
07:49 56.6 °F 54.9 °F 29.55 in NW 3.5 mph 2.2 mph 94% 0.01 in 18.00 W/m2
07:54 56.4 °F 54.7 °F 29.55 in NW 4.6 mph 2.1 mph 94% 0.01 in 18.00 W/m2
07:59 56.3 °F 54.6 °F 29.55 in NW 2.3 mph 1.2 mph 94% 0.01 in 19.00 W/m2
08:04 56.2 °F 54.5 °F 29.54 in NW 3.5 mph 0.5 mph 94% 0.01 in 18.00 W/m2
08:09 56.1 °F 54.4 °F 29.54 in WNW 5.8 mph 1.9 mph 94% 0.01 in 14.00 W/m2
08:14 55.7 °F 53.7 °F 29.55 in NW 4.6 mph 2.3 mph 93% 0.01 in 18.00 W/m2
08:19 55.5 °F 53.8 °F 29.55 in NNW 4.6 mph 3.5 mph 94% 0.01 in 16.00 W/m2
08:24 55.3 °F 53.6 °F 29.54 in NW 5.8 mph 4.3 mph 94% 0.00 in 14.00 W/m2
08:29 55.1 °F 53.4 °F 29.55 in NNW 8.1 mph 5.3 mph 94% 0.00 in 16.00 W/m2
08:34 55.0 °F 53.3 °F 29.55 in NW 6.9 mph 3.1 mph 94% 0.00 in 14.00 W/m2
08:39 54.2 °F 52.2 °F 29.54 in NNW 9.2 mph 4.8 mph 93% 0.00 in 21.00 W/m2
08:44 53.6 °F 51.6 °F 29.54 in WNW 5.8 mph 4.1 mph 93% 0.00 in 19.00 W/m2
08:49 53.3 °F 51.3 °F 29.54 in WNW 8.0 mph 4.3 mph 93% 0.01 in 23.00 W/m2
08:54 53.2 °F 51.2 °F 29.54 in NW 6.9 mph 3.3 mph 93% 0.01 in 32.00 W/m2
08:59 53.3 °F 51.3 °F 29.53 in NW 4.6 mph 2.9 mph 93% 0.01 in 39.00 W/m2
09:04 53.3 °F 51.6 °F 29.53 in NW 4.6 mph 3.0 mph 94% 0.01 in 33.00 W/m2
09:09 53.2 °F 51.2 °F 29.54 in NNW 8.1 mph 4.8 mph 93% 0.01 in 23.00 W/m2
09:14 53.1 °F 51.1 °F 29.54 in NNW 4.6 mph 3.1 mph 93% 0.02 in 19.00 W/m2
09:19 53.0 °F 51.0 °F 29.54 in NW 6.9 mph 4.4 mph 93% 0.03 in 14.00 W/m2
09:24 52.8 °F 51.1 °F 29.54 in NW 10.4 mph 4.9 mph 94% 0.04 in 14.00 W/m2
09:29 52.6 °F 50.6 °F 29.55 in NW 10.4 mph 7.2 mph 93% 0.04 in 12.00 W/m2
09:34 52.5 °F 50.8 °F 29.54 in NW 8.1 mph 6.9 mph 94% 0.05 in 25.00 W/m2
09:39 52.3 °F 50.6 °F 29.55 in NW 8.1 mph 4.4 mph 94% 0.07 in 32.00 W/m2
09:44 52.3 °F 50.6 °F 29.55 in WNW 6.0 mph 3.8 mph 94% 0.07 in 26.00 W/m2
09:49 52.3 °F 50.6 °F 29.56 in NW 6.0 mph 2.5 mph 94% 0.07 in 23.00 W/m2
09:54 52.2 °F 50.5 °F 29.56 in WNW 4.6 mph 3.8 mph 94% 0.07 in 19.00 W/m2
09:59 52.1 °F 50.4 °F 29.56 in NW 10.4 mph 3.8 mph 94% 0.08 in 46.00 W/m2
10:04 52.0 °F 50.3 °F 29.56 in NW 10.4 mph 7.0 mph 94% 0.10 in 47.00 W/m2
10:09 51.8 °F 50.1 °F 29.56 in NW 8.1 mph 5.5 mph 94% 0.11 in 49.00 W/m2
10:14 51.3 °F 49.6 °F 29.56 in WNW 11.5 mph 5.8 mph 94% 0.12 in 44.00 W/m2
10:19 51.0 °F 49.3 °F 29.56 in NW 6.9 mph 5.3 mph 94% 0.12 in 51.00 W/m2
10:24 50.8 °F 49.1 °F 29.57 in WNW 9.2 mph 4.6 mph 94% 0.12 in 65.00 W/m2
10:29 50.8 °F 49.1 °F 29.57 in NW 10.4 mph 5.9 mph 94% 0.12 in 56.00 W/m2
10:34 50.9 °F 49.2 °F 29.57 in WNW 8.1 mph 5.3 mph 94% 0.11 in 83.00 W/m2
10:39 51.1 °F 49.4 °F 29.57 in WNW 11.0 mph 5.8 mph 94% 0.09 in 81.00 W/m2
10:44 51.2 °F 49.5 °F 29.57 in NW 8.1 mph 4.9 mph 94% 0.09 in 91.00 W/m2
10:49 51.2 °F 49.5 °F 29.57 in NW 10.4 mph 2.1 mph 94% 0.08 in 81.00 W/m2
10:54 51.2 °F 49.5 °F 29.57 in NW 11.5 mph 5.1 mph 94% 0.09 in 63.00 W/m2
10:59 51.2 °F 49.5 °F 29.57 in West 11.5 mph 6.7 mph 94% 0.08 in 51.00 W/m2
11:04 51.0 °F 49.3 °F 29.57 in West 11.5 mph 6.1 mph 94% 0.06 in 47.00 W/m2
11:09 50.8 °F 49.1 °F 29.57 in NW 6.9 mph 4.5 mph 94% 0.05 in 49.00 W/m2
11:14 50.7 °F 49.0 °F 29.57 in West 11.5 mph 4.4 mph 94% 0.03 in 63.00 W/m2
11:19 50.7 °F 49.0 °F 29.58 in NW 6.0 mph 4.2 mph 94% 0.02 in 40.00 W/m2
11:24 50.6 °F 48.9 °F 29.58 in West 7.0 mph 3.3 mph 94% 0.01 in 62.00 W/m2
11:29 50.5 °F 48.8 °F 29.58 in WNW 7.0 mph 4.8 mph 94% 0.01 in 77.00 W/m2
11:34 50.5 °F 48.8 °F 29.58 in NW 4.0 mph 3.2 mph 94% 0.02 in 84.00 W/m2
11:39 50.6 °F 48.9 °F 29.59 in West 6.9 mph 5.3 mph 94% 0.02 in 69.00 W/m2
11:44 50.5 °F 48.8 °F 29.59 in WSW 10.4 mph 4.6 mph 94% 0.03 in 58.00 W/m2
11:49 50.4 °F 48.7 °F 29.60 in West 9.2 mph 3.0 mph 94% 0.04 in 53.00 W/m2
11:54 50.4 °F 48.7 °F 29.60 in West 7.0 mph 3.7 mph 94% 0.03 in 67.00 W/m2
11:59 50.5 °F 48.8 °F 29.60 in WNW 10.4 mph 7.2 mph 94% 0.04 in 93.00 W/m2
12:04 50.5 °F 48.8 °F 29.60 in WNW 9.2 mph 4.5 mph 94% 0.04 in 37.00 W/m2
12:09 50.3 °F 48.6 °F 29.61 in West 7.0 mph 6.2 mph 94% 0.04 in 65.00 W/m2
12:14 50.0 °F 48.3 °F 29.61 in WNW 10.4 mph 7.9 mph 94% 0.04 in 90.00 W/m2
12:19 50.0 °F 48.3 °F 29.61 in NNW 11.5 mph 6.3 mph 94% 0.05 in 84.00 W/m2
12:24 50.0 °F 48.3 °F 29.61 in WNW 16.1 mph 5.3 mph 94% 0.06 in 104.00 W/m2
12:29 50.2 °F 48.5 °F 29.62 in WNW 10.4 mph 6.0 mph 94% 0.06 in 72.00 W/m2
Bourbonnais, Illinois, USA
Compliments of Weather Underground - 2 mb